createdAt,value
2022-08-19T10:28:00.558Z,12.73
2022-08-19T10:30:28.689Z,11.10
2022-08-19T10:32:55.359Z,11.30
2022-08-19T10:35:22.509Z,11.07
2022-08-19T10:37:57.327Z,13.55
2022-08-19T10:40:28.792Z,11.15
2022-08-19T10:42:56.433Z,11.50
2022-08-19T10:45:26.426Z,10.45
2022-08-19T10:47:54.942Z,11.13
2022-08-19T10:50:41.187Z,13.25
2022-08-19T10:53:09.794Z,11.50
2022-08-19T10:55:55.062Z,13.30
2022-08-19T10:58:24.502Z,10.90
2022-08-19T11:00:55.646Z,9.70
2022-08-19T11:03:22.605Z,9.05
2022-08-19T11:06:01.751Z,11.52
2022-08-19T11:08:28.486Z,9.55
2022-08-19T11:10:58.381Z,9.85
2022-08-19T11:13:25.590Z,9.50
2022-08-19T11:16:14.692Z,10.07
2022-08-19T11:18:44.492Z,9.00
2022-08-19T11:21:18.145Z,10.00
2022-08-19T11:23:44.754Z,10.15
2022-08-19T11:26:11.794Z,11.82
2022-08-19T11:28:39.591Z,10.45
2022-08-19T11:31:15.073Z,10.38
2022-08-19T11:33:41.834Z,9.93
2022-08-19T11:36:15.059Z,11.48
2022-08-19T11:38:41.916Z,10.05
2022-08-19T11:41:08.529Z,12.73
2022-08-19T11:43:37.687Z,10.35
2022-08-19T11:46:09.342Z,9.48
2022-08-19T11:48:36.447Z,11.88
2022-08-19T11:51:12.515Z,9.73
2022-08-19T11:53:39.608Z,11.77
2022-08-19T11:56:07.461Z,11.77
2022-08-19T11:58:35.069Z,12.88
2022-08-19T12:01:01.857Z,9.82
2022-08-19T12:03:28.983Z,12.05
2022-08-19T12:05:55.703Z,9.82
2022-08-19T12:08:22.510Z,9.93
2022-08-19T12:10:49.125Z,10.43
2022-08-19T12:13:19.496Z,9.50
2022-08-19T12:15:47.559Z,9.50
2022-08-19T12:18:17.463Z,10.20
2022-08-19T12:20:44.251Z,9.50
2022-08-19T12:23:11.211Z,11.73
2022-08-19T12:25:39.237Z,11.38
2022-08-19T12:28:05.798Z,9.15
2022-08-19T12:30:32.337Z,8.98
2022-08-19T12:32:58.844Z,10.70
2022-08-19T12:35:25.527Z,10.07
2022-08-19T12:37:56.666Z,9.13
2022-08-19T12:40:26.293Z,8.82
2022-08-19T12:42:54.263Z,8.00
2022-08-19T12:45:20.892Z,8.70
2022-08-19T12:47:47.805Z,10.52
2022-08-19T12:52:43.363Z,8.15
2022-08-19T12:55:11.541Z,7.75
2022-08-19T12:57:38.625Z,8.20
2022-08-19T13:00:12.814Z,7.88
2022-08-19T13:02:45.122Z,7.78
2022-08-19T13:05:13.703Z,9.05
2022-08-19T13:07:41.821Z,7.47
2022-08-19T13:10:10.047Z,7.45
2022-08-19T13:12:36.653Z,9.80
2022-08-19T13:15:03.717Z,8.07
2022-08-19T13:17:39.015Z,7.07
2022-08-19T13:20:08.826Z,9.18
2022-08-19T13:22:37.028Z,6.60
2022-08-19T13:25:06.261Z,6.93
2022-08-19T13:27:32.888Z,8.23
2022-08-19T13:30:17.979Z,6.78
2022-08-19T13:33:03.260Z,6.18
2022-08-19T13:35:29.939Z,6.53
2022-08-19T13:37:56.537Z,8.77
2022-08-19T13:40:27.134Z,6.97
2022-08-19T13:42:55.594Z,6.75
2022-08-19T13:45:25.252Z,8.43
2022-08-19T13:47:57.097Z,6.63
2022-08-19T13:50:29.714Z,6.30
2022-08-19T13:52:57.112Z,8.93
2022-08-19T13:55:25.351Z,8.38
2022-08-19T13:58:00.987Z,8.07
2022-08-19T14:00:29.574Z,9.20
2022-08-19T14:05:23.910Z,7.53
2022-08-19T14:07:50.627Z,7.95
2022-08-19T14:10:19.722Z,8.95
2022-08-19T14:12:47.248Z,8.10
2022-08-19T14:15:14.902Z,9.27
2022-08-19T14:17:43.076Z,8.77
2022-08-19T14:20:17.444Z,9.43
2022-08-19T14:22:45.482Z,8.80
2022-08-19T14:25:16.278Z,7.45
2022-08-19T14:27:43.223Z,10.18
2022-08-19T14:30:13.475Z,7.97
2022-08-19T14:32:40.135Z,7.75
2022-08-19T14:35:08.347Z,10.55
2022-08-19T14:37:45.198Z,7.85
2022-08-19T14:40:14.584Z,8.45
2022-08-19T14:42:42.237Z,8.07
2022-08-19T14:45:09.489Z,7.88
2022-08-19T14:47:36.321Z,7.85
2022-08-19T14:50:17.715Z,9.88
2022-08-19T14:52:48.675Z,8.43
2022-08-19T14:55:16.775Z,10.43
2022-08-19T14:57:44.688Z,10.05
2022-08-19T15:00:14.991Z,10.70
2022-08-19T15:02:42.601Z,9.55
2022-08-19T15:05:09.693Z,8.15
2022-08-19T15:07:36.575Z,8.52
2022-08-19T15:10:04.568Z,10.90
2022-08-19T15:12:31.380Z,7.90
2022-08-19T15:14:57.912Z,8.80
2022-08-19T15:17:32.409Z,9.90
2022-08-19T15:20:14.304Z,9.82
2022-08-19T15:22:41.288Z,8.10
2022-08-19T15:25:11.607Z,10.45
2022-08-19T15:27:40.578Z,7.82
2022-08-19T15:30:11.819Z,8.45
2022-08-19T15:32:39.271Z,8.15
2022-08-19T15:35:07.100Z,7.72
2022-08-19T15:37:37.420Z,6.75
2022-08-19T15:40:06.141Z,9.40
2022-08-19T15:42:33.445Z,8.90
2022-08-19T15:45:02.512Z,7.75
2022-08-19T15:47:34.804Z,7.20
2022-08-19T15:50:10.595Z,7.13
2022-08-19T15:52:48.333Z,7.35
2022-08-19T15:55:32.505Z,8.70
2022-08-19T15:58:29.838Z,6.68
2022-08-19T16:01:21.168Z,6.45
2022-08-19T16:04:11.333Z,6.20
2022-08-19T16:06:49.518Z,7.30
2022-08-19T16:09:17.360Z,6.63
2022-08-19T16:11:46.215Z,6.63
2022-08-19T16:14:18.517Z,6.90
2022-08-19T16:16:46.846Z,8.68
2022-08-19T16:19:15.708Z,6.45
2022-08-19T16:24:15.208Z,8.38
2022-08-19T16:29:13.073Z,6.70
2022-08-19T16:31:42.167Z,7.32
2022-08-19T16:34:08.955Z,6.88
2022-08-19T16:36:35.779Z,6.55
2022-08-19T16:39:03.519Z,8.35
2022-08-19T16:41:30.070Z,8.02
2022-08-19T16:43:56.610Z,6.93
2022-08-19T16:46:26.943Z,7.57
2022-08-19T16:48:54.503Z,5.70
2022-08-19T16:51:22.706Z,6.13
2022-08-19T16:53:51.945Z,7.10
2022-08-19T16:56:19.513Z,8.50
2022-08-19T16:58:46.086Z,6.70
2022-08-19T17:01:13.732Z,6.15
2022-08-19T17:03:40.411Z,6.35
2022-08-19T17:06:20.489Z,6.15
2022-08-19T17:08:51.804Z,5.95
2022-08-19T17:11:19.820Z,8.95
2022-08-19T17:13:47.913Z,7.43
2022-08-19T17:16:16.907Z,7.95
2022-08-19T17:21:13.953Z,8.32
2022-08-19T17:23:43.273Z,6.18
2022-08-19T17:26:18.082Z,6.70
2022-08-19T17:28:50.478Z,6.90
2022-08-19T17:31:19.396Z,6.18
2022-08-19T17:33:48.556Z,7.88
2022-08-19T17:36:29.296Z,6.78
2022-08-19T17:38:58.143Z,7.93
2022-08-19T17:41:25.758Z,6.55
2022-08-19T17:43:52.625Z,7.82
2022-08-19T17:46:22.547Z,6.95
2022-08-19T17:48:52.767Z,6.78
2022-08-19T17:51:40.613Z,6.18
2022-08-19T17:54:11.891Z,8.32
2022-08-19T17:56:38.503Z,7.72
2022-08-19T17:59:05.943Z,6.28
2022-08-19T18:01:43.820Z,8.65
2022-08-19T18:04:18.660Z,8.63
2022-08-19T18:06:46.919Z,6.35
2022-08-19T18:09:41.729Z,8.07
2022-08-19T18:12:11.054Z,6.82
2022-08-19T18:14:39.165Z,6.82
2022-08-19T18:17:17.294Z,6.53
2022-08-19T18:19:44.269Z,6.68
2022-08-19T18:22:22.503Z,7.28
2022-08-19T18:24:49.284Z,6.70
2022-08-19T18:27:15.802Z,8.85
2022-08-19T18:29:43.252Z,6.80
2022-08-19T18:32:24.069Z,7.70
2022-08-19T18:34:51.208Z,6.40
2022-08-19T18:37:17.714Z,6.57
2022-08-19T18:40:03.337Z,6.25
2022-08-19T18:42:48.523Z,6.30
2022-08-19T18:45:33.343Z,7.60
2022-08-19T18:48:26.893Z,5.88
2022-08-19T18:50:55.697Z,6.20
2022-08-19T18:53:22.233Z,6.60
2022-08-19T18:55:51.815Z,5.85
2022-08-19T18:58:18.377Z,6.25
2022-08-19T19:00:44.892Z,5.53
2022-08-19T19:03:11.630Z,5.25
2022-08-19T19:05:39.829Z,5.30
2022-08-19T19:08:07.041Z,5.50
2022-08-19T19:10:35.385Z,5.35
2022-08-19T19:13:01.991Z,5.82
2022-08-19T19:15:29.384Z,7.20
2022-08-19T19:17:56.072Z,5.85
2022-08-19T19:20:35.104Z,5.80
2022-08-19T19:23:03.029Z,6.00
2022-08-19T19:25:50.730Z,6.75
2022-08-19T19:28:16.414Z,6.80
2022-08-19T19:30:42.945Z,6.55
2022-08-19T19:33:09.450Z,6.45
2022-08-19T19:35:36.001Z,5.95
2022-08-19T19:38:02.543Z,5.80
2022-08-19T19:40:29.366Z,5.53
2022-08-19T19:42:55.939Z,5.30
2022-08-19T19:45:22.817Z,7.55
2022-08-19T19:47:50.074Z,4.93
2022-08-19T19:50:17.846Z,5.57
2022-08-19T19:52:45.905Z,6.28
2022-08-19T19:55:17.763Z,7.03
2022-08-19T19:57:48.709Z,4.95
2022-08-19T20:00:18.666Z,4.95
2022-08-19T20:02:49.598Z,5.07
2022-08-19T20:05:18.274Z,5.70
2022-08-19T20:08:03.467Z,4.95
2022-08-19T20:10:33.219Z,4.85
2022-08-19T20:13:02.319Z,5.93
2022-08-19T20:15:29.389Z,4.63
2022-08-19T20:17:56.124Z,5.53
2022-08-19T20:20:23.579Z,6.43
2022-08-19T20:22:50.093Z,4.97
2022-08-19T20:25:18.588Z,4.90
2022-08-19T20:27:49.077Z,5.57
2022-08-19T20:30:19.303Z,4.75
2022-08-19T20:32:46.970Z,6.63
2022-08-19T20:35:14.973Z,6.63
2022-08-19T20:37:41.574Z,4.78
2022-08-19T20:40:13.265Z,6.80
2022-08-19T20:42:41.458Z,4.95
2022-08-19T20:45:16.402Z,4.05
2022-08-19T20:47:57.497Z,4.60
2022-08-19T20:50:24.038Z,4.75
2022-08-19T20:52:53.389Z,4.93
2022-08-19T20:55:21.903Z,4.65
2022-08-19T20:57:48.461Z,4.70
2022-08-19T21:00:15.344Z,4.80
2022-08-19T21:02:41.884Z,4.82
2022-08-19T21:05:08.509Z,5.90
2022-08-19T21:07:39.002Z,4.10
2022-08-19T21:10:06.787Z,4.85
2022-08-19T21:12:33.364Z,4.43
2022-08-19T21:14:59.893Z,5.07
2022-08-19T21:17:26.402Z,6.20
2022-08-19T21:19:52.952Z,4.10
2022-08-19T21:22:19.537Z,4.97
2022-08-19T21:24:46.062Z,5.38
2022-08-19T21:27:12.581Z,5.40
2022-08-19T21:29:40.456Z,4.80
2022-08-19T21:32:07.552Z,4.65
2022-08-19T21:34:34.214Z,4.60
2022-08-19T21:37:00.787Z,4.90
2022-08-19T21:39:27.293Z,6.47
2022-08-19T21:41:54.301Z,4.88
2022-08-19T21:44:20.896Z,4.38
2022-08-19T21:46:50.715Z,4.90
2022-08-19T21:49:17.496Z,5.20
2022-08-19T21:51:44.160Z,7.57
2022-08-19T21:54:14.155Z,5.53
2022-08-19T21:56:41.466Z,7.28
2022-08-19T21:59:08.727Z,5.15
2022-08-19T22:01:35.756Z,5.57
2022-08-19T22:04:02.265Z,6.72
2022-08-19T22:06:28.888Z,6.13
2022-08-19T22:08:55.657Z,5.47
2022-08-19T22:11:23.656Z,4.97
2022-08-19T22:13:53.687Z,5.53
2022-08-19T22:16:21.252Z,7.13
2022-08-19T22:18:49.169Z,5.38
2022-08-19T22:21:15.673Z,5.28
2022-08-19T22:23:57.877Z,6.75
2022-08-19T22:26:24.366Z,5.05
2022-08-19T22:28:50.885Z,6.75
2022-08-19T22:31:18.342Z,6.10
2022-08-19T22:33:45.181Z,7.18
2022-08-19T22:36:12.233Z,6.43
2022-08-19T22:38:38.774Z,7.97
2022-08-19T22:41:07.659Z,6.32
2022-08-19T22:43:34.634Z,7.95
2022-08-19T22:46:01.341Z,8.25
2022-08-19T22:48:30.265Z,9.13
2022-08-19T22:51:15.711Z,8.82
2022-08-19T22:53:45.082Z,7.07
2022-08-19T22:56:15.339Z,6.72
2022-08-19T22:58:42.492Z,7.32
2022-08-19T23:01:11.592Z,6.63
2022-08-19T23:03:43.445Z,7.38
2022-08-19T23:06:10.212Z,7.55
2022-08-19T23:08:39.631Z,9.85
2022-08-19T23:11:06.835Z,9.00
2022-08-19T23:13:36.233Z,7.57
2022-08-19T23:16:03.120Z,8.90
2022-08-19T23:18:29.631Z,8.13
2022-08-19T23:20:56.340Z,6.47
2022-08-19T23:23:24.698Z,6.30
2022-08-19T23:25:52.813Z,6.38
2022-08-19T23:28:38.445Z,5.60
2022-08-19T23:31:05.811Z,6.50
2022-08-19T23:33:46.432Z,6.57
2022-08-19T23:36:19.275Z,4.78
2022-08-19T23:38:48.010Z,5.65
2022-08-19T23:43:42.870Z,7.93
2022-08-19T23:46:11.439Z,7.03
2022-08-19T23:48:39.781Z,6.82
2022-08-19T23:51:09.367Z,7.28
2022-08-19T23:53:37.957Z,7.95
2022-08-19T23:56:07.096Z,8.70
2022-08-19T23:58:35.406Z,7.63
